createdAt,value
2023-01-25T00:00:13.898Z,0.00
2023-01-25T00:01:14.770Z,0.00
2023-01-25T00:02:15.616Z,0.00
2023-01-25T00:03:16.552Z,0.00
2023-01-25T00:04:17.349Z,0.00
2023-01-25T00:05:18.202Z,0.00
2023-01-25T00:06:19.074Z,0.00
2023-01-25T00:07:19.943Z,0.00
2023-01-25T00:08:21.221Z,0.00
2023-01-25T00:09:21.539Z,0.00
2023-01-25T00:10:22.672Z,0.00
2023-01-25T00:11:23.024Z,0.00
2023-01-25T00:12:23.882Z,0.00
2023-01-25T00:13:25.176Z,0.00
2023-01-25T00:14:25.556Z,0.00
2023-01-25T00:15:26.393Z,0.00
2023-01-25T00:16:27.342Z,0.00
2023-01-25T00:17:28.147Z,0.00
2023-01-25T00:18:29.180Z,0.00
2023-01-25T00:19:29.560Z,0.00
2023-01-25T00:20:30.389Z,0.00
2023-01-25T00:21:31.239Z,0.00
2023-01-25T00:22:32.127Z,0.00
2023-01-25T00:23:32.995Z,0.00
2023-01-25T00:24:33.815Z,0.00
2023-01-25T00:25:34.660Z,0.00
2023-01-25T00:26:35.516Z,0.00
2023-01-25T00:27:36.384Z,0.00
2023-01-25T00:28:37.249Z,0.00
2023-01-25T00:29:38.108Z,0.00
2023-01-25T00:30:38.959Z,0.00
2023-01-25T00:31:39.961Z,0.00
2023-01-25T00:32:40.917Z,0.00
2023-01-25T00:33:41.331Z,0.00
2023-01-25T00:34:42.171Z,0.00
2023-01-25T00:35:43.050Z,0.00
2023-01-25T00:36:43.905Z,0.00
2023-01-25T00:37:44.771Z,0.00
2023-01-25T00:38:45.643Z,0.00
2023-01-25T00:39:46.461Z,0.00
2023-01-25T00:40:47.315Z,0.00
2023-01-25T00:41:48.166Z,0.00
2023-01-25T00:42:49.048Z,0.00
2023-01-25T00:43:49.902Z,0.00
2023-01-25T00:44:50.769Z,0.00
2023-01-25T00:45:51.703Z,0.00
2023-01-25T00:46:52.579Z,0.00
2023-01-25T00:47:53.376Z,0.00
2023-01-25T00:48:54.314Z,0.00
2023-01-25T00:49:55.173Z,0.00
2023-01-25T00:50:56.029Z,0.00
2023-01-25T00:51:56.893Z,0.00
2023-01-25T00:52:57.751Z,0.00
2023-01-25T00:53:58.637Z,0.00
2023-01-25T00:54:59.451Z,0.00
2023-01-25T00:56:00.315Z,0.00
2023-01-25T00:57:01.173Z,0.00
2023-01-25T00:58:02.027Z,0.00
2023-01-25T00:59:02.894Z,0.00
2023-01-25T01:00:03.767Z,0.00
2023-01-25T01:01:04.695Z,0.00
2023-01-25T01:02:05.533Z,0.00
2023-01-25T01:03:06.375Z,0.00
2023-01-25T01:04:07.666Z,0.00
2023-01-25T01:05:08.395Z,0.00
2023-01-25T01:06:08.356Z,0.00
2023-01-25T01:07:09.217Z,0.00
2023-01-25T01:08:10.063Z,0.00
2023-01-25T01:09:11.225Z,0.00
2023-01-25T01:10:11.508Z,0.00
2023-01-25T01:11:12.364Z,0.00
2023-01-25T01:12:13.213Z,0.00
2023-01-25T01:13:14.070Z,0.00
2023-01-25T01:14:14.933Z,0.00
2023-01-25T01:15:15.793Z,0.00
2023-01-25T01:16:16.688Z,0.00
2023-01-25T01:17:17.576Z,0.00
2023-01-25T01:18:18.366Z,0.00
2023-01-25T01:19:19.231Z,0.00
2023-01-25T01:20:20.092Z,0.00
2023-01-25T01:21:20.958Z,0.00
2023-01-25T01:22:21.856Z,0.00
2023-01-25T01:23:22.659Z,0.00
2023-01-25T01:24:23.648Z,0.00
2023-01-25T01:25:24.533Z,0.00
2023-01-25T01:26:25.337Z,0.00
2023-01-25T01:27:26.208Z,0.00
2023-01-25T01:28:27.069Z,0.00
2023-01-25T01:29:27.939Z,0.00
2023-01-25T01:30:28.787Z,0.00
2023-01-25T01:31:29.808Z,0.00
2023-01-25T01:32:30.730Z,0.00
2023-01-25T01:33:31.564Z,0.00
2023-01-25T01:34:32.429Z,0.00
2023-01-25T01:35:33.280Z,0.00
2023-01-25T01:36:34.129Z,0.00
2023-01-25T01:37:34.997Z,0.00
2023-01-25T01:38:35.847Z,0.00
2023-01-25T01:39:37.244Z,0.00
2023-01-25T01:40:37.517Z,0.00
2023-01-25T01:41:38.390Z,0.00
2023-01-25T01:42:39.234Z,0.00
2023-01-25T01:43:40.087Z,0.00
2023-01-25T01:44:41.159Z,0.00
2023-01-25T01:45:41.757Z,0.00
2023-01-25T01:46:42.070Z,0.00
2023-01-25T01:47:42.962Z,0.00
2023-01-25T01:48:43.805Z,0.00
2023-01-25T01:49:44.669Z,0.00
2023-01-25T01:50:45.523Z,0.00
2023-01-25T01:51:46.391Z,0.00
2023-01-25T01:52:47.241Z,0.00
2023-01-25T01:53:48.088Z,0.00
2023-01-25T01:54:48.967Z,0.00
2023-01-25T01:55:49.758Z,0.00
2023-01-25T01:56:50.608Z,0.00
2023-01-25T01:57:51.491Z,0.00
2023-01-25T01:58:52.344Z,0.00
2023-01-25T01:59:53.653Z,0.00
2023-01-25T02:00:54.064Z,0.00
2023-01-25T02:01:54.867Z,0.00
2023-01-25T02:02:55.827Z,0.00
2023-01-25T02:03:56.639Z,0.00
2023-01-25T02:04:57.507Z,0.00
2023-01-25T02:05:58.359Z,0.00
2023-01-25T02:06:59.217Z,0.00
2023-01-25T02:08:00.107Z,0.00
2023-01-25T02:09:00.925Z,0.00
2023-01-25T02:10:01.817Z,0.00
2023-01-25T02:11:02.655Z,0.00
2023-01-25T02:12:03.510Z,0.00
2023-01-25T02:13:04.367Z,0.00
2023-01-25T02:14:05.254Z,0.00
2023-01-25T02:15:06.696Z,0.00
2023-01-25T02:16:06.794Z,0.00
2023-01-25T02:17:07.683Z,0.00
2023-01-25T02:18:08.566Z,0.00
2023-01-25T02:19:09.412Z,0.00
2023-01-25T02:20:10.675Z,0.00
2023-01-25T02:21:11.013Z,0.00
2023-01-25T02:22:11.890Z,0.00
2023-01-25T02:23:12.722Z,0.00
2023-01-25T02:24:13.716Z,0.00
2023-01-25T02:25:14.561Z,0.00
2023-01-25T02:26:15.362Z,0.00
2023-01-25T02:27:16.215Z,0.00
2023-01-25T02:28:17.079Z,0.00
2023-01-25T02:29:17.925Z,0.00
2023-01-25T02:30:18.792Z,0.00
2023-01-25T02:31:19.844Z,0.00
2023-01-25T02:32:20.279Z,0.00
2023-01-25T02:33:21.109Z,0.00
2023-01-25T02:34:21.942Z,0.00
2023-01-25T02:35:23.161Z,0.00
2023-01-25T02:36:23.502Z,0.00
2023-01-25T02:37:24.387Z,0.00
2023-01-25T02:38:25.241Z,0.00
2023-01-25T02:39:26.101Z,0.00
2023-01-25T02:40:27.127Z,0.00
2023-01-25T02:41:28.190Z,0.00
2023-01-25T02:42:28.534Z,0.00
2023-01-25T02:43:29.392Z,0.00
2023-01-25T02:44:31.659Z,0.00
2023-01-25T02:45:31.072Z,0.00
2023-01-25T02:46:32.092Z,0.00
2023-01-25T02:47:32.908Z,0.00
2023-01-25T02:48:33.788Z,0.00
2023-01-25T02:49:34.626Z,0.00
2023-01-25T02:50:35.653Z,0.00
2023-01-25T02:51:36.506Z,0.00
2023-01-25T02:52:37.364Z,0.00
2023-01-25T02:53:38.215Z,0.00
2023-01-25T02:54:39.069Z,0.00
2023-01-25T02:55:39.959Z,0.00
2023-01-25T02:56:40.749Z,0.00
2023-01-25T02:57:41.600Z,0.00
2023-01-25T02:58:42.457Z,0.00
2023-01-25T02:59:43.327Z,0.00
2023-01-25T03:00:44.190Z,0.00
2023-01-25T03:01:45.133Z,0.00
2023-01-25T03:02:46.059Z,0.00
2023-01-25T03:03:46.918Z,0.00
2023-01-25T03:04:47.774Z,0.00
2023-01-25T03:05:48.604Z,0.00
2023-01-25T03:06:49.471Z,0.00
2023-01-25T03:07:50.315Z,0.00
2023-01-25T03:08:51.165Z,0.00
2023-01-25T03:09:52.029Z,0.00
2023-01-25T03:10:52.919Z,0.00
2023-01-25T03:11:53.700Z,0.00
2023-01-25T03:12:54.550Z,0.00
2023-01-25T03:13:55.402Z,0.00
2023-01-25T03:14:56.300Z,0.00
2023-01-25T03:15:57.675Z,0.00
2023-01-25T03:16:58.205Z,0.00
2023-01-25T03:17:58.564Z,0.00
2023-01-25T03:18:59.445Z,0.00
2023-01-25T03:20:00.274Z,0.00
2023-01-25T03:21:01.141Z,0.00
2023-01-25T03:22:01.998Z,0.00
2023-01-25T03:23:02.855Z,0.00
2023-01-25T03:24:03.811Z,0.00
2023-01-25T03:25:04.673Z,0.00
2023-01-25T03:26:05.559Z,0.00
2023-01-25T03:27:06.349Z,0.00
2023-01-25T03:28:07.199Z,0.00
2023-01-25T03:29:08.059Z,0.00
2023-01-25T03:30:08.912Z,0.00
2023-01-25T03:31:10.240Z,0.00
2023-01-25T03:32:10.750Z,0.00
2023-01-25T03:33:11.562Z,0.00
2023-01-25T03:34:12.437Z,0.00
2023-01-25T03:35:13.291Z,0.00
2023-01-25T03:36:14.197Z,0.00
2023-01-25T03:37:15.015Z,0.00
2023-01-25T03:38:15.868Z,0.00
2023-01-25T03:39:16.724Z,0.00
2023-01-25T03:40:17.585Z,0.00
2023-01-25T03:41:18.460Z,0.00
2023-01-25T03:42:19.288Z,0.00
2023-01-25T03:43:20.172Z,0.00
2023-01-25T03:44:21.027Z,0.00
2023-01-25T03:45:21.885Z,0.00
2023-01-25T03:46:23.135Z,0.00
2023-01-25T03:47:23.492Z,0.00
2023-01-25T03:48:24.347Z,0.00
2023-01-25T03:49:25.223Z,0.00
2023-01-25T03:50:26.087Z,0.00
2023-01-25T03:51:27.132Z,0.00
2023-01-25T03:52:27.497Z,0.00
2023-01-25T03:53:28.421Z,0.00
2023-01-25T03:54:29.276Z,0.00
2023-01-25T03:55:30.147Z,0.00
2023-01-25T03:56:31.025Z,0.00
2023-01-25T03:57:31.823Z,0.00
2023-01-25T03:58:32.680Z,0.00
2023-01-25T03:59:33.532Z,0.00
2023-01-25T04:00:34.415Z,0.00
2023-01-25T04:01:35.254Z,0.00
2023-01-25T04:02:36.178Z,0.00
2023-01-25T04:03:37.013Z,0.00
2023-01-25T04:04:37.891Z,0.00
2023-01-25T04:05:38.822Z,0.00
2023-01-25T04:06:39.690Z,0.00
2023-01-25T04:07:40.541Z,0.00
2023-01-25T04:08:41.396Z,0.00
2023-01-25T04:09:42.249Z,0.00
2023-01-25T04:10:43.095Z,0.00
2023-01-25T04:11:43.990Z,0.00
2023-01-25T04:12:44.766Z,0.00
2023-01-25T04:13:45.630Z,0.00
2023-01-25T04:14:46.489Z,0.00
2023-01-25T04:15:47.341Z,0.00
2023-01-25T04:16:48.689Z,0.00
2023-01-25T04:17:48.992Z,0.00
2023-01-25T04:18:49.863Z,0.00
2023-01-25T04:19:50.741Z,0.00
2023-01-25T04:20:51.573Z,0.00
2023-01-25T04:21:52.438Z,0.00
2023-01-25T04:22:53.290Z,0.00
2023-01-25T04:23:54.208Z,0.00
2023-01-25T04:24:55.054Z,0.00
2023-01-25T04:25:55.936Z,0.00
2023-01-25T04:26:56.795Z,0.00
2023-01-25T04:27:57.600Z,0.00
2023-01-25T04:28:58.460Z,0.00
2023-01-25T04:29:59.312Z,0.00
2023-01-25T04:31:00.176Z,0.00
2023-01-25T04:32:01.150Z,0.00
2023-01-25T04:33:01.986Z,0.00
2023-01-25T04:34:02.841Z,0.00
2023-01-25T04:35:03.716Z,0.00
2023-01-25T04:36:04.550Z,0.00
2023-01-25T04:37:05.625Z,0.00
2023-01-25T04:38:05.978Z,0.00
2023-01-25T04:39:06.846Z,0.00
2023-01-25T04:40:07.711Z,0.00
2023-01-25T04:41:08.575Z,0.00
2023-01-25T04:42:09.666Z,0.00
2023-01-25T04:43:09.942Z,0.00
2023-01-25T04:44:10.790Z,0.00
2023-01-25T04:45:12.101Z,0.00
2023-01-25T04:46:12.703Z,0.00
2023-01-25T04:47:13.516Z,0.00
2023-01-25T04:48:14.377Z,0.00
2023-01-25T04:49:15.231Z,0.00
2023-01-25T04:50:16.109Z,0.00
2023-01-25T04:51:16.942Z,0.00
2023-01-25T04:52:17.804Z,0.00
2023-01-25T04:53:18.653Z,0.00
2023-01-25T04:54:19.513Z,0.00
2023-01-25T04:55:20.386Z,0.00
2023-01-25T04:56:21.252Z,0.00
2023-01-25T04:57:22.139Z,0.00
2023-01-25T04:58:22.969Z,0.00
2023-01-25T04:59:23.828Z,0.00
2023-01-25T05:00:24.677Z,0.00
2023-01-25T05:01:25.699Z,0.00
2023-01-25T05:02:26.080Z,0.00
2023-01-25T05:03:27.737Z,0.00
2023-01-25T05:04:27.544Z,0.00
2023-01-25T05:05:28.481Z,0.00
2023-01-25T05:06:29.324Z,0.00
2023-01-25T05:07:30.630Z,0.00
2023-01-25T05:08:30.989Z,0.00
2023-01-25T05:09:31.825Z,0.00
2023-01-25T05:10:32.679Z,0.00
2023-01-25T05:11:33.534Z,0.00
2023-01-25T05:12:34.427Z,0.00
2023-01-25T05:13:35.267Z,0.00
2023-01-25T05:14:36.113Z,0.00
2023-01-25T05:15:36.988Z,0.00
2023-01-25T05:16:37.909Z,0.00
2023-01-25T05:17:39.118Z,0.00
2023-01-25T05:18:48.384Z,0.00
2023-01-25T05:19:41.224Z,0.00
2023-01-25T05:20:41.110Z,0.00
2023-01-25T05:21:44.591Z,0.00
2023-01-25T05:22:42.703Z,0.00
2023-01-25T05:23:43.555Z,0.00
2023-01-25T05:24:44.412Z,0.00
2023-01-25T05:25:45.265Z,0.00
2023-01-25T05:26:46.122Z,0.00
2023-01-25T05:27:47.001Z,0.00
2023-01-25T05:28:47.810Z,0.00
2023-01-25T05:29:48.676Z,0.00
2023-01-25T05:30:49.642Z,0.00
2023-01-25T05:31:50.558Z,0.00
2023-01-25T05:32:51.390Z,0.00
2023-01-25T05:33:52.224Z,0.00
2023-01-25T05:34:53.077Z,0.00
2023-01-25T05:35:53.956Z,0.00
2023-01-25T05:36:54.786Z,0.00
2023-01-25T05:37:56.112Z,0.00
2023-01-25T05:38:56.475Z,0.00
2023-01-25T05:39:57.338Z,0.00
2023-01-25T05:40:58.216Z,0.00
2023-01-25T05:41:59.045Z,0.00
2023-01-25T05:42:59.998Z,0.00
2023-01-25T05:44:00.839Z,0.00
2023-01-25T05:45:01.704Z,0.00
2023-01-25T05:46:02.692Z,0.00
2023-01-25T05:47:03.532Z,0.00
2023-01-25T05:48:04.400Z,0.00
2023-01-25T05:49:05.253Z,0.00
2023-01-25T05:50:08.622Z,0.00
2023-01-25T05:51:07.075Z,0.00
2023-01-25T05:52:07.902Z,0.00
2023-01-25T05:53:09.111Z,0.00
2023-01-25T05:54:09.493Z,0.00
2023-01-25T05:55:12.573Z,0.00
2023-01-25T05:56:11.235Z,0.00
2023-01-25T05:57:12.110Z,0.00
2023-01-25T05:58:13.148Z,0.00
2023-01-25T05:59:13.463Z,0.00
2023-01-25T06:00:14.323Z,0.00
2023-01-25T06:01:15.178Z,0.00
2023-01-25T06:02:16.179Z,0.00
2023-01-25T06:03:17.249Z,0.00
2023-01-25T06:04:17.599Z,0.00
2023-01-25T06:05:18.470Z,0.00
2023-01-25T06:06:19.340Z,0.00
2023-01-25T06:07:20.180Z,0.00
2023-01-25T06:08:21.046Z,0.00
2023-01-25T06:09:21.900Z,0.00
2023-01-25T06:10:22.756Z,0.00
2023-01-25T06:11:23.610Z,0.00
2023-01-25T06:12:24.474Z,0.00
2023-01-25T06:13:25.405Z,0.00
2023-01-25T06:14:26.206Z,0.00
2023-01-25T06:15:27.058Z,0.00
2023-01-25T06:16:27.938Z,0.00
2023-01-25T06:17:28.784Z,0.00
2023-01-25T06:18:31.286Z,0.00
2023-01-25T06:19:30.251Z,0.00
2023-01-25T06:20:31.110Z,0.00
2023-01-25T06:21:31.990Z,0.00
2023-01-25T06:22:32.820Z,0.00
2023-01-25T06:23:34.103Z,0.00
2023-01-25T06:24:34.460Z,0.00
2023-01-25T06:25:35.316Z,0.00
2023-01-25T06:26:36.186Z,0.00
2023-01-25T06:27:37.054Z,0.00
2023-01-25T06:28:37.936Z,0.00
2023-01-25T06:29:38.895Z,0.00
2023-01-25T06:30:39.749Z,0.00
2023-01-25T06:31:40.818Z,0.00
2023-01-25T06:32:41.218Z,0.00
2023-01-25T06:33:42.604Z,0.00
2023-01-25T06:34:42.965Z,0.00
2023-01-25T06:35:43.817Z,0.00
2023-01-25T06:36:44.710Z,0.00
2023-01-25T06:37:45.528Z,0.00
2023-01-25T06:38:46.390Z,0.00
2023-01-25T06:39:47.244Z,0.00
2023-01-25T06:40:48.102Z,0.00
2023-01-25T06:41:48.958Z,0.00
2023-01-25T06:42:49.809Z,0.00
2023-01-25T06:43:50.713Z,0.00
2023-01-25T06:44:51.521Z,4.00
2023-01-25T06:45:52.383Z,4.00
2023-01-25T06:46:53.299Z,4.00
2023-01-25T06:47:54.109Z,4.00
2023-01-25T06:48:54.976Z,4.00
2023-01-25T06:49:55.837Z,4.00
2023-01-25T06:50:56.704Z,0.00
2023-01-25T06:51:57.581Z,0.00
2023-01-25T06:52:58.416Z,0.00
2023-01-25T06:53:59.298Z,4.00
2023-01-25T06:55:00.131Z,4.00
2023-01-25T06:56:01.001Z,4.00
2023-01-25T06:57:01.849Z,4.00
2023-01-25T06:58:02.727Z,4.00
2023-01-25T06:59:03.604Z,4.00
2023-01-25T07:00:04.390Z,4.00
2023-01-25T07:01:05.236Z,4.00
2023-01-25T07:02:06.191Z,4.00
2023-01-25T07:03:07.186Z,8.00
2023-01-25T07:04:08.983Z,4.00
2023-01-25T07:05:09.132Z,8.00
2023-01-25T07:06:09.598Z,8.00
2023-01-25T07:07:10.480Z,8.00
2023-01-25T07:08:11.321Z,12.00
2023-01-25T07:09:12.186Z,12.00
2023-01-25T07:10:13.049Z,12.00
2023-01-25T07:11:13.940Z,16.00
2023-01-25T07:12:14.763Z,16.00
2023-01-25T07:13:15.616Z,16.00
2023-01-25T07:14:16.630Z,20.00
2023-01-25T07:15:17.475Z,20.00
2023-01-25T07:16:18.320Z,20.00
2023-01-25T07:17:19.177Z,20.00
2023-01-25T07:18:20.040Z,28.00
2023-01-25T07:19:21.093Z,28.00
2023-01-25T07:20:21.448Z,28.00
2023-01-25T07:21:22.309Z,32.00
2023-01-25T07:22:23.189Z,32.00
2023-01-25T07:23:24.025Z,36.00
2023-01-25T07:24:24.925Z,36.00
2023-01-25T07:25:25.745Z,40.00
2023-01-25T07:26:26.616Z,44.00
2023-01-25T07:27:27.464Z,48.00
2023-01-25T07:28:28.333Z,48.00
2023-01-25T07:29:29.115Z,52.00
2023-01-25T07:30:29.405Z,56.00
2023-01-25T07:31:30.316Z,60.00
2023-01-25T07:32:31.139Z,64.00
2023-01-25T07:33:31.994Z,64.00
2023-01-25T07:34:33.091Z,64.00
2023-01-25T07:35:33.447Z,72.00
2023-01-25T07:36:34.313Z,76.00
2023-01-25T07:37:35.201Z,76.00
2023-01-25T07:38:36.040Z,80.00
2023-01-25T07:39:37.087Z,84.00
2023-01-25T07:40:37.444Z,88.00
2023-01-25T07:41:38.299Z,92.00
2023-01-25T07:42:39.152Z,92.00
2023-01-25T07:43:40.007Z,96.00
2023-01-25T07:44:40.900Z,96.00
2023-01-25T07:45:41.745Z,104.00
2023-01-25T07:46:42.597Z,108.00
2023-01-25T07:47:43.505Z,108.00
2023-01-25T07:48:44.361Z,112.00
2023-01-25T07:49:45.227Z,120.00
2023-01-25T07:50:46.104Z,128.00
2023-01-25T07:51:46.934Z,132.00
2023-01-25T07:52:47.808Z,140.00
2023-01-25T07:53:48.643Z,144.00
2023-01-25T07:54:49.589Z,148.00
2023-01-25T07:55:50.441Z,152.00
2023-01-25T07:56:51.322Z,160.00
2023-01-25T07:57:52.180Z,164.00
2023-01-25T07:58:53.061Z,168.00
2023-01-25T07:59:54.111Z,176.00
2023-01-25T08:00:54.414Z,180.00
2023-01-25T08:01:55.270Z,184.00
2023-01-25T08:02:56.122Z,188.00
2023-01-25T08:03:56.976Z,192.00
2023-01-25T08:04:57.839Z,192.00
2023-01-25T08:05:58.845Z,200.00
2023-01-25T08:06:59.206Z,200.00
2023-01-25T08:08:00.112Z,208.00
2023-01-25T08:09:00.913Z,212.00
2023-01-25T08:10:01.783Z,212.00
2023-01-25T08:11:02.642Z,220.00
2023-01-25T08:12:03.501Z,224.00
2023-01-25T08:13:04.355Z,232.00
2023-01-25T08:14:05.214Z,236.00
2023-01-25T08:15:06.158Z,240.00
2023-01-25T08:16:06.575Z,248.00
2023-01-25T08:17:07.474Z,260.00
2023-01-25T08:18:08.411Z,268.00
2023-01-25T08:19:09.269Z,276.00
2023-01-25T08:20:10.141Z,280.00
2023-01-25T08:21:10.998Z,284.00
2023-01-25T08:22:11.858Z,292.00
2023-01-25T08:23:12.743Z,296.00
2023-01-25T08:24:15.823Z,304.00
2023-01-25T08:25:14.322Z,316.00
2023-01-25T08:26:15.189Z,324.00
2023-01-25T08:27:16.047Z,320.00
2023-01-25T08:28:16.901Z,328.00
2023-01-25T08:29:17.837Z,340.00
2023-01-25T08:30:18.681Z,344.00
2023-01-25T08:31:19.538Z,348.00
2023-01-25T08:32:20.362Z,360.00
2023-01-25T08:33:21.216Z,368.00
2023-01-25T08:34:22.091Z,360.00
2023-01-25T08:35:22.939Z,360.00
2023-01-25T08:36:23.794Z,372.00
2023-01-25T08:37:24.642Z,380.00
2023-01-25T08:38:25.521Z,388.00
2023-01-25T08:39:26.364Z,396.00
2023-01-25T08:40:27.226Z,404.00
2023-01-25T08:41:28.081Z,408.00
2023-01-25T08:42:29.013Z,412.00
2023-01-25T08:43:29.854Z,416.00
2023-01-25T08:44:30.721Z,420.00
2023-01-25T08:45:31.604Z,424.00
2023-01-25T08:46:32.395Z,424.00
2023-01-25T08:47:33.243Z,428.00
2023-01-25T08:48:34.129Z,424.00
2023-01-25T08:49:34.987Z,424.00
2023-01-25T08:50:36.080Z,436.00
2023-01-25T08:51:36.393Z,444.00
2023-01-25T08:52:37.289Z,448.00
2023-01-25T08:53:38.162Z,452.00
2023-01-25T08:54:39.027Z,456.00
2023-01-25T08:55:40.072Z,456.00
2023-01-25T08:56:40.485Z,464.00
2023-01-25T08:57:41.334Z,468.00
2023-01-25T08:58:42.197Z,480.00
2023-01-25T08:59:43.043Z,492.00
2023-01-25T09:00:44.119Z,504.00
2023-01-25T09:01:44.429Z,508.00
2023-01-25T09:02:45.266Z,520.00
2023-01-25T09:03:46.184Z,528.00
2023-01-25T09:04:46.973Z,532.00
2023-01-25T09:05:48.077Z,540.00
2023-01-25T09:06:48.429Z,544.00
2023-01-25T09:07:49.301Z,544.00
2023-01-25T09:08:50.195Z,552.00
2023-01-25T09:09:51.158Z,556.00
2023-01-25T09:10:51.958Z,556.00
2023-01-25T09:11:52.818Z,564.00
2023-01-25T09:12:53.676Z,576.00
2023-01-25T09:13:54.566Z,576.00
2023-01-25T09:14:55.416Z,576.00
2023-01-25T09:15:56.617Z,576.00
2023-01-25T09:16:56.924Z,580.00
2023-01-25T09:17:57.786Z,588.00
2023-01-25T09:18:58.673Z,596.00
2023-01-25T09:19:59.560Z,600.00
2023-01-25T09:21:00.388Z,612.00
2023-01-25T09:22:01.220Z,624.00
2023-01-25T09:23:02.080Z,632.00
2023-01-25T09:24:07.540Z,632.00
2023-01-25T09:25:03.631Z,640.00
2023-01-25T09:26:04.505Z,648.00
2023-01-25T09:27:05.362Z,660.00
2023-01-25T09:28:06.244Z,664.00
2023-01-25T09:29:07.121Z,668.00
2023-01-25T09:30:13.491Z,672.00
2023-01-25T09:31:21.099Z,676.00
2023-01-25T09:32:10.431Z,688.00
2023-01-25T09:33:10.312Z,692.00
2023-01-25T09:34:11.212Z,700.00
2023-01-25T09:35:12.032Z,704.00
2023-01-25T09:36:14.847Z,708.00
2023-01-25T09:37:13.807Z,712.00
2023-01-25T09:38:14.677Z,720.00
2023-01-25T09:39:15.596Z,736.00
2023-01-25T09:40:16.406Z,740.00
2023-01-25T09:41:17.275Z,744.00
2023-01-25T09:42:19.285Z,748.00
2023-01-25T09:43:18.686Z,740.00
2023-01-25T09:44:19.554Z,732.00
2023-01-25T09:45:20.410Z,732.00
2023-01-25T09:46:21.385Z,744.00
2023-01-25T09:47:22.165Z,768.00
2023-01-25T09:48:23.166Z,776.00
2023-01-25T09:49:23.517Z,784.00
2023-01-25T09:50:24.373Z,800.00
2023-01-25T09:51:25.564Z,808.00
2023-01-25T09:52:25.919Z,788.00
2023-01-25T09:53:26.808Z,780.00
2023-01-25T09:54:28.477Z,772.00
2023-01-25T09:55:28.196Z,776.00
2023-01-25T09:56:29.067Z,784.00
2023-01-25T09:57:29.931Z,796.00
2023-01-25T09:58:30.794Z,804.00
2023-01-25T09:59:31.649Z,816.00
2023-01-25T10:00:32.522Z,812.00
2023-01-25T10:01:38.881Z,804.00
2023-01-25T10:02:35.424Z,808.00
2023-01-25T10:03:34.808Z,812.00
2023-01-25T10:04:35.667Z,828.00
2023-01-25T10:05:36.520Z,840.00
2023-01-25T10:06:37.568Z,856.00
2023-01-25T10:07:37.920Z,892.00
2023-01-25T10:08:38.780Z,916.00
2023-01-25T10:09:39.653Z,932.00
2023-01-25T10:10:40.504Z,940.00
2023-01-25T10:11:41.558Z,940.00
2023-01-25T10:12:41.914Z,960.00
2023-01-25T10:13:42.776Z,968.00
2023-01-25T10:14:43.630Z,968.00
2023-01-25T10:15:44.542Z,968.00
2023-01-25T10:16:45.467Z,980.00
2023-01-25T10:17:46.270Z,980.00
2023-01-25T10:18:47.206Z,976.00
2023-01-25T10:19:48.054Z,976.00
2023-01-25T10:20:48.914Z,980.00
2023-01-25T10:21:49.782Z,976.00
2023-01-25T10:22:50.635Z,972.00
2023-01-25T10:23:51.538Z,968.00
2023-01-25T10:24:52.420Z,956.00
2023-01-25T10:25:53.244Z,960.00
2023-01-25T10:26:54.556Z,968.00
2023-01-25T10:27:54.909Z,964.00
2023-01-25T10:28:55.766Z,960.00
2023-01-25T10:29:56.633Z,964.00
2023-01-25T10:30:57.657Z,976.00
2023-01-25T10:31:58.613Z,980.00
2023-01-25T10:32:59.154Z,980.00
2023-01-25T10:33:59.539Z,984.00
2023-01-25T10:35:00.397Z,980.00
2023-01-25T10:36:01.255Z,980.00
2023-01-25T10:37:02.553Z,988.00
2023-01-25T10:38:02.925Z,984.00
2023-01-25T10:39:03.831Z,992.00
2023-01-25T10:40:04.719Z,992.00
2023-01-25T10:41:05.550Z,996.00
2023-01-25T10:42:06.552Z,996.00
2023-01-25T10:43:06.916Z,1000.00
2023-01-25T10:44:07.772Z,1020.00
2023-01-25T10:45:08.946Z,1048.00
2023-01-25T10:46:09.441Z,1088.00
2023-01-25T10:47:10.571Z,1108.00
2023-01-25T10:48:10.888Z,1132.00
2023-01-25T10:49:11.750Z,1128.00
2023-01-25T10:50:12.607Z,1128.00
2023-01-25T10:51:13.492Z,1116.00
2023-01-25T10:52:14.573Z,1096.00
2023-01-25T10:53:14.955Z,1092.00
2023-01-25T10:54:15.810Z,1084.00
2023-01-25T10:55:16.919Z,1072.00
2023-01-25T10:56:17.282Z,1052.00
2023-01-25T10:59:29.485Z,1012.00
2023-01-25T11:00:08.383Z,1004.00
2023-01-25T11:03:06.945Z,1024.00
2023-01-25T11:03:59.328Z,1024.00
2023-01-25T11:05:00.292Z,1044.00
2023-01-25T11:06:00.648Z,1036.00
2023-01-25T11:07:17.266Z,1016.00
2023-01-25T11:08:02.214Z,1020.00
2023-01-25T11:09:03.085Z,1032.00
2023-01-25T11:10:04.284Z,1048.00
2023-01-25T11:11:04.670Z,1064.00
2023-01-25T11:12:05.516Z,1100.00
2023-01-25T11:13:06.369Z,1124.00
2023-01-25T11:14:07.306Z,1136.00
2023-01-25T11:15:08.192Z,1120.00
2023-01-25T11:16:09.801Z,1128.00
2023-01-25T11:17:09.626Z,1156.00
2023-01-25T11:18:10.493Z,1184.00
2023-01-25T11:19:11.386Z,1224.00
2023-01-25T11:20:12.600Z,1248.00
2023-01-25T11:21:28.968Z,1276.00
2023-01-25T11:22:13.959Z,1272.00
2023-01-25T11:25:04.364Z,1248.00
2023-01-25T11:27:56.557Z,1256.00
2023-01-25T11:30:46.943Z,1256.00
2023-01-25T11:31:48.961Z,1256.00
2023-01-25T11:32:48.308Z,1252.00
2023-01-25T11:33:50.325Z,1240.00
2023-01-25T11:35:24.429Z,1212.00
2023-01-25T11:35:50.408Z,1196.00
2023-01-25T11:37:14.093Z,1184.00
2023-01-25T11:38:20.966Z,1168.00
2023-01-25T11:39:14.837Z,1164.00
2023-01-25T11:39:53.859Z,1168.00
2023-01-25T11:41:01.291Z,1160.00
2023-01-25T11:41:55.475Z,1148.00
2023-01-25T11:42:56.436Z,1136.00
2023-01-25T11:43:57.318Z,1124.00
2023-01-25T11:44:58.158Z,1112.00
2023-01-25T11:45:59.046Z,1108.00
2023-01-25T11:46:59.891Z,1104.00
2023-01-25T11:48:00.938Z,1112.00
2023-01-25T11:49:01.308Z,1124.00
2023-01-25T11:50:02.162Z,1136.00
2023-01-25T11:51:03.018Z,1148.00
2023-01-25T11:52:03.877Z,1160.00
2023-01-25T11:53:26.516Z,1188.00
2023-01-25T11:54:09.271Z,1212.00
2023-01-25T11:55:05.992Z,1240.00
2023-01-25T11:56:06.870Z,1280.00
2023-01-25T11:57:08.229Z,1308.00
2023-01-25T11:58:08.590Z,1336.00
2023-01-25T12:01:07.636Z,1288.00
2023-01-25T12:02:02.273Z,1256.00
2023-01-25T12:03:37.646Z,1236.00
2023-01-25T12:04:03.995Z,1232.00
2023-01-25T12:06:54.226Z,1244.00
2023-01-25T12:07:55.066Z,1248.00
2023-01-25T12:08:55.945Z,1236.00
2023-01-25T12:09:56.779Z,1224.00
2023-01-25T12:10:57.623Z,1220.00
2023-01-25T12:11:58.488Z,1212.00
2023-01-25T12:12:59.348Z,1204.00
2023-01-25T12:14:00.215Z,1196.00
2023-01-25T12:15:01.072Z,1200.00
2023-01-25T12:16:01.978Z,1192.00
2023-01-25T12:17:02.823Z,1184.00
2023-01-25T12:18:03.676Z,1176.00
2023-01-25T12:19:04.520Z,1172.00
2023-01-25T12:20:05.540Z,1168.00
2023-01-25T12:21:08.205Z,1164.00
2023-01-25T12:22:07.918Z,1164.00
2023-01-25T12:23:07.272Z,1152.00
2023-01-25T12:24:08.238Z,1144.00
2023-01-25T12:25:09.057Z,1140.00
2023-01-25T12:26:09.932Z,1136.00
2023-01-25T12:27:10.842Z,1124.00
2023-01-25T12:30:32.381Z,1100.00
2023-01-25T12:30:33.692Z,1084.00
2023-01-25T12:31:34.622Z,1076.00
2023-01-25T12:32:35.453Z,1076.00
2023-01-25T12:33:36.294Z,1088.00
2023-01-25T12:34:37.140Z,1092.00
2023-01-25T12:35:37.994Z,1108.00
2023-01-25T12:36:38.856Z,1124.00
2023-01-25T12:37:39.863Z,1128.00
2023-01-25T12:38:40.691Z,1128.00
2023-01-25T12:39:41.587Z,1128.00
2023-01-25T12:40:42.398Z,1116.00
2023-01-25T12:41:43.254Z,1120.00
2023-01-25T12:42:44.332Z,1120.00
2023-01-25T12:43:44.688Z,1120.00
2023-01-25T12:44:45.595Z,1128.00
2023-01-25T12:45:46.451Z,1136.00
2023-01-25T12:46:47.378Z,1148.00
2023-01-25T12:47:48.205Z,1148.00
2023-01-25T12:48:49.028Z,1156.00
2023-01-25T12:49:49.887Z,1160.00
2023-01-25T12:50:50.743Z,1168.00
2023-01-25T12:51:51.600Z,1176.00
2023-01-25T12:52:52.458Z,1176.00
2023-01-25T12:53:53.318Z,1180.00
2023-01-25T12:54:56.191Z,1188.00
2023-01-25T12:55:54.712Z,1208.00
2023-01-25T12:56:55.570Z,1216.00
2023-01-25T12:57:56.432Z,1192.00
2023-01-25T12:58:57.294Z,1160.00
2023-01-25T12:59:58.146Z,1152.00
2023-01-25T13:00:59.046Z,1152.00
2023-01-25T13:01:59.905Z,1148.00
2023-01-25T13:03:00.765Z,1128.00
2023-01-25T13:04:01.614Z,1112.00
2023-01-25T13:05:02.457Z,1100.00
2023-01-25T13:06:03.310Z,1104.00
2023-01-25T13:07:04.189Z,1104.00
2023-01-25T13:08:05.324Z,1096.00
2023-01-25T13:09:05.679Z,1088.00
2023-01-25T13:10:06.569Z,1072.00
2023-01-25T13:11:07.359Z,1052.00
2023-01-25T13:12:08.238Z,1044.00
2023-01-25T13:13:08.723Z,1040.00
2023-01-25T13:14:09.604Z,1052.00
2023-01-25T13:15:10.473Z,1076.00
2023-01-25T13:16:11.333Z,1084.00